THY608 LTFM-LCEN
Flight info
| Callsign | THY608 |
|---|---|
| Flight time | 1h 4m |
| Altitude | 41000 |
| Route | RATVU1D/35L RATVU UT35 DOKUB UT76 KFK UB545 HISAR |
| Aircraft | A359/H-SDE2E3GHIJ3J4J5LM1ORWXY/LB1D1 |
Departure
| Time | 2026-05-06 15:29 |
|---|---|
| Airport | İstanbul Airport (LTFM) |
Arrival
| Time | 2026-05-06 16:34 |
|---|---|
| Airport | Ercan International Airport (LCEN) |
| Time | Latitude | Longitude | Altitude | Speed | Heading |
|---|---|---|---|---|---|
| 2026-05-06 15:10 | 41.26244 | 28.73631 | 340 ft | 0 kts | 71° |
| 2026-05-06 15:20 | 41.26241 | 28.73622 | 340 ft | 2 kts | 70° |
| 2026-05-06 15:20 | 41.26235 | 28.73602 | 335 ft | 2 kts | 67° |
| 2026-05-06 15:20 | 41.26228 | 28.73582 | 335 ft | 2 kts | 62° |
| 2026-05-06 15:21 | 41.26220 | 28.73563 | 335 ft | 2 kts | 57° |
| 2026-05-06 15:21 | 41.26210 | 28.73545 | 335 ft | 2 kts | 48° |
| 2026-05-06 15:21 | 41.26204 | 28.73536 | 340 ft | 2 kts | 42° |
| 2026-05-06 15:21 | 41.26191 | 28.73523 | 335 ft | 2 kts | 29° |
| 2026-05-06 15:22 | 41.26176 | 28.73514 | 338 ft | 2 kts | 14° |
| 2026-05-06 15:22 | 41.26160 | 28.73511 | 335 ft | 2 kts | 4° |
| 2026-05-06 15:22 | 41.26151 | 28.73510 | 335 ft | 0 kts | 9° |
| 2026-05-06 15:24 | 41.26168 | 28.73514 | 338 ft | 5 kts | 8° |
| 2026-05-06 15:24 | 41.26217 | 28.73504 | 336 ft | 9 kts | 337° |
| 2026-05-06 15:24 | 41.26226 | 28.73469 | 335 ft | 5 kts | 268° |
| 2026-05-06 15:24 | 41.26223 | 28.73399 | 336 ft | 11 kts | 267° |
| 2026-05-06 15:25 | 41.26219 | 28.73271 | 337 ft | 17 kts | 268° |
| 2026-05-06 15:25 | 41.26217 | 28.73094 | 337 ft | 22 kts | 269° |
| 2026-05-06 15:25 | 41.26215 | 28.72972 | 338 ft | 0 kts | 269° |
| 2026-05-06 15:27 | 41.26215 | 28.72952 | 338 ft | 6 kts | 269° |
| 2026-05-06 15:27 | 41.26214 | 28.72889 | 339 ft | 14 kts | 269° |
| 2026-05-06 15:27 | 41.26212 | 28.72715 | 340 ft | 24 kts | 269° |
| 2026-05-06 15:28 | 41.26217 | 28.72560 | 338 ft | 9 kts | 295° |
| 2026-05-06 15:28 | 41.26273 | 28.72521 | 336 ft | 11 kts | 343° |
| 2026-05-06 15:28 | 41.26575 | 28.72514 | 336 ft | 85 kts | 358° |
| 2026-05-06 15:28 | 41.27419 | 28.72497 | 338 ft | 155 kts | 358° |
| 2026-05-06 15:29 | 41.28687 | 28.72425 | 457 ft | 205 kts | 0° |
| 2026-05-06 15:29 | 41.30289 | 28.72319 | 573 ft | 259 kts | 359° |
| 2026-05-06 15:29 | 41.32282 | 28.72190 | 682 ft | 311 kts | 359° |
| 2026-05-06 15:29 | 41.34565 | 28.72003 | 1252 ft | 341 kts | 357° |
| 2026-05-06 15:30 | 41.36962 | 28.71691 | 1918 ft | 345 kts | 349° |
| 2026-05-06 15:30 | 41.39039 | 28.70471 | 3418 ft | 314 kts | 323° |
| 2026-05-06 15:30 | 41.40315 | 28.68412 | 4673 ft | 265 kts | 296° |
| 2026-05-06 15:30 | 41.40632 | 28.66071 | 5534 ft | 260 kts | 266° |
| 2026-05-06 15:31 | 41.40148 | 28.63764 | 6067 ft | 266 kts | 251° |
| 2026-05-06 15:31 | 41.39402 | 28.61490 | 6243 ft | 269 kts | 250° |
| 2026-05-06 15:31 | 41.38575 | 28.59236 | 6144 ft | 272 kts | 240° |
| 2026-05-06 15:32 | 41.36416 | 28.56367 | 6937 ft | 285 kts | 216° |
| 2026-05-06 15:32 | 41.34555 | 28.55340 | 7924 ft | 294 kts | 194° |
| 2026-05-06 15:32 | 41.32537 | 28.54959 | 8946 ft | 300 kts | 186° |
| 2026-05-06 15:32 | 41.30423 | 28.54866 | 9954 ft | 307 kts | 180° |
| 2026-05-06 15:33 | 41.28238 | 28.54935 | 10644 ft | 324 kts | 179° |
| 2026-05-06 15:33 | 41.25919 | 28.55414 | 11059 ft | 350 kts | 163° |
| 2026-05-06 15:33 | 41.23695 | 28.56904 | 11597 ft | 366 kts | 143° |
| 2026-05-06 15:33 | 41.21676 | 28.59038 | 12424 ft | 373 kts | 136° |
| 2026-05-06 15:34 | 41.19794 | 28.61381 | 13335 ft | 378 kts | 133° |
| 2026-05-06 15:34 | 41.17923 | 28.63883 | 14193 ft | 383 kts | 132° |
| 2026-05-06 15:34 | 41.16049 | 28.66428 | 14995 ft | 389 kts | 132° |
| 2026-05-06 15:34 | 41.14131 | 28.69010 | 15790 ft | 394 kts | 133° |
| 2026-05-06 15:35 | 41.12370 | 28.71805 | 16568 ft | 398 kts | 124° |
| 2026-05-06 15:35 | 41.10749 | 28.74806 | 17358 ft | 403 kts | 122° |
| 2026-05-06 15:35 | 41.09179 | 28.77903 | 18166 ft | 407 kts | 121° |
| 2026-05-06 15:35 | 41.07627 | 28.81065 | 18895 ft | 412 kts | 120° |
| 2026-05-06 15:36 | 41.06060 | 28.84291 | 19586 ft | 419 kts | 121° |
| 2026-05-06 15:36 | 41.04226 | 28.87330 | 20309 ft | 426 kts | 133° |
| 2026-05-06 15:36 | 41.01910 | 28.89818 | 21041 ft | 433 kts | 147° |
| 2026-05-06 15:36 | 40.99205 | 28.91651 | 21761 ft | 439 kts | 156° |
| 2026-05-06 15:37 | 40.96359 | 28.93179 | 22468 ft | 444 kts | 159° |
| 2026-05-06 15:37 | 40.93444 | 28.94619 | 23191 ft | 449 kts | 161° |
| 2026-05-06 15:37 | 40.90508 | 28.95970 | 23853 ft | 454 kts | 162° |
| 2026-05-06 15:37 | 40.87497 | 28.97286 | 24440 ft | 459 kts | 162° |
| 2026-05-06 15:38 | 40.84441 | 28.98584 | 25034 ft | 463 kts | 163° |
| 2026-05-06 15:38 | 40.81353 | 28.99880 | 25634 ft | 468 kts | 163° |
| 2026-05-06 15:38 | 40.78229 | 29.01190 | 26216 ft | 472 kts | 163° |
| 2026-05-06 15:38 | 40.75081 | 29.02512 | 26787 ft | 477 kts | 163° |
| 2026-05-06 15:39 | 40.71908 | 29.03849 | 27377 ft | 481 kts | 163° |
| 2026-05-06 15:39 | 40.68702 | 29.05203 | 27950 ft | 486 kts | 163° |
| 2026-05-06 15:39 | 40.65456 | 29.06575 | 28505 ft | 490 kts | 163° |
| 2026-05-06 15:39 | 40.62189 | 29.07956 | 29052 ft | 495 kts | 163° |
| 2026-05-06 15:40 | 40.58938 | 29.09329 | 29588 ft | 500 kts | 163° |
| 2026-05-06 15:40 | 40.55612 | 29.10733 | 30116 ft | 504 kts | 163° |
| 2026-05-06 15:40 | 40.52258 | 29.12146 | 30526 ft | 509 kts | 163° |
| 2026-05-06 15:40 | 40.48856 | 29.13577 | 30944 ft | 513 kts | 163° |
| 2026-05-06 15:41 | 40.45447 | 29.15010 | 31372 ft | 517 kts | 163° |
| 2026-05-06 15:41 | 40.41999 | 29.16457 | 31777 ft | 521 kts | 163° |
| 2026-05-06 15:41 | 40.38540 | 29.17908 | 32199 ft | 524 kts | 163° |
| 2026-05-06 15:41 | 40.35056 | 29.19367 | 32574 ft | 527 kts | 163° |
| 2026-05-06 15:42 | 40.31551 | 29.20834 | 32953 ft | 530 kts | 163° |
| 2026-05-06 15:42 | 40.28064 | 29.22292 | 33333 ft | 533 kts | 163° |
| 2026-05-06 15:42 | 40.24518 | 29.23773 | 33719 ft | 535 kts | 163° |
| 2026-05-06 15:42 | 40.20966 | 29.25255 | 34189 ft | 534 kts | 163° |
| 2026-05-06 15:43 | 40.17429 | 29.26729 | 34674 ft | 532 kts | 163° |
| 2026-05-06 15:43 | 40.13902 | 29.28199 | 35153 ft | 530 kts | 163° |
| 2026-05-06 15:43 | 40.10395 | 29.29658 | 35647 ft | 528 kts | 163° |
| 2026-05-06 15:43 | 40.06898 | 29.31111 | 36103 ft | 527 kts | 163° |
| 2026-05-06 15:44 | 40.03410 | 29.32558 | 36528 ft | 525 kts | 163° |
| 2026-05-06 15:44 | 39.99925 | 29.34002 | 36891 ft | 526 kts | 163° |
| 2026-05-06 15:44 | 39.96443 | 29.35443 | 37305 ft | 525 kts | 163° |
| 2026-05-06 15:44 | 39.92968 | 29.36880 | 37750 ft | 523 kts | 164° |
| 2026-05-06 15:45 | 39.89548 | 29.38500 | 38153 ft | 523 kts | 159° |
| 2026-05-06 15:45 | 39.86175 | 29.40286 | 38589 ft | 522 kts | 159° |
| 2026-05-06 15:45 | 39.82828 | 29.42105 | 38906 ft | 521 kts | 158° |
| 2026-05-06 15:45 | 39.79531 | 29.43920 | 39168 ft | 521 kts | 158° |
| 2026-05-06 15:46 | 39.76188 | 29.45767 | 39450 ft | 520 kts | 158° |
| 2026-05-06 15:46 | 39.72858 | 29.47607 | 39715 ft | 519 kts | 158° |
| 2026-05-06 15:46 | 39.69534 | 29.49438 | 39992 ft | 519 kts | 158° |
| 2026-05-06 15:46 | 39.66203 | 29.51267 | 40238 ft | 519 kts | 159° |
| 2026-05-06 15:47 | 39.62876 | 29.53086 | 40476 ft | 518 kts | 159° |
| 2026-05-06 15:47 | 39.59533 | 29.54830 | 40727 ft | 518 kts | 160° |
| 2026-05-06 15:47 | 39.56167 | 29.56507 | 40960 ft | 517 kts | 161° |
| 2026-05-06 15:47 | 39.52832 | 29.58138 | 41046 ft | 519 kts | 161° |
| 2026-05-06 15:48 | 39.46078 | 29.61442 | 41054 ft | 518 kts | 161° |
| 2026-05-06 15:48 | 39.39425 | 29.64728 | 41052 ft | 518 kts | 161° |
| 2026-05-06 15:49 | 39.32684 | 29.68073 | 41055 ft | 518 kts | 161° |
| 2026-05-06 15:49 | 39.25948 | 29.71415 | 41052 ft | 518 kts | 161° |
| 2026-05-06 15:50 | 39.19248 | 29.74730 | 41056 ft | 518 kts | 161° |
| 2026-05-06 15:50 | 39.12500 | 29.78062 | 41054 ft | 518 kts | 161° |
| 2026-05-06 15:51 | 39.05753 | 29.81385 | 41058 ft | 518 kts | 161° |
| 2026-05-06 15:51 | 38.99067 | 29.84779 | 41056 ft | 519 kts | 156° |
| 2026-05-06 15:52 | 38.93081 | 29.89953 | 41061 ft | 521 kts | 136° |
| 2026-05-06 15:52 | 38.90689 | 29.93445 | 41064 ft | 521 kts | 125° |
| 2026-05-06 15:52 | 38.88828 | 29.97432 | 41059 ft | 520 kts | 114° |
| 2026-05-06 15:53 | 38.87562 | 30.01770 | 41063 ft | 518 kts | 103° |
| 2026-05-06 15:53 | 38.86792 | 30.06283 | 41063 ft | 517 kts | 99° |
| 2026-05-06 15:53 | 38.85597 | 30.15340 | 41067 ft | 518 kts | 97° |
| 2026-05-06 15:54 | 38.84460 | 30.24483 | 41071 ft | 518 kts | 97° |
| 2026-05-06 15:54 | 38.83272 | 30.33618 | 41073 ft | 518 kts | 98° |
| 2026-05-06 15:55 | 38.82044 | 30.42752 | 41076 ft | 519 kts | 98° |
| 2026-05-06 15:55 | 38.80443 | 30.51730 | 41079 ft | 521 kts | 109° |
| 2026-05-06 15:56 | 38.76910 | 30.59813 | 41085 ft | 522 kts | 128° |
| 2026-05-06 15:56 | 38.72259 | 30.66926 | 41084 ft | 522 kts | 131° |
| 2026-05-06 15:57 | 38.67423 | 30.73901 | 41088 ft | 522 kts | 132° |
| 2026-05-06 15:57 | 38.62624 | 30.80831 | 41093 ft | 522 kts | 132° |
| 2026-05-06 15:58 | 38.57811 | 30.87836 | 41093 ft | 522 kts | 131° |
| 2026-05-06 15:58 | 38.53043 | 30.94791 | 41097 ft | 522 kts | 131° |
| 2026-05-06 15:59 | 38.48273 | 31.01738 | 41097 ft | 522 kts | 132° |
| 2026-05-06 15:59 | 38.43471 | 31.08679 | 41102 ft | 521 kts | 132° |
| 2026-05-06 16:00 | 38.38668 | 31.15543 | 41104 ft | 521 kts | 133° |
| 2026-05-06 16:00 | 38.33828 | 31.22447 | 41104 ft | 521 kts | 133° |
| 2026-05-06 16:01 | 38.28991 | 31.29345 | 41110 ft | 521 kts | 133° |
| 2026-05-06 16:01 | 38.24159 | 31.36225 | 41105 ft | 521 kts | 133° |
| 2026-05-06 16:02 | 38.19349 | 31.43059 | 41106 ft | 522 kts | 133° |
| 2026-05-06 16:02 | 38.14499 | 31.49937 | 41103 ft | 522 kts | 133° |
| 2026-05-06 16:03 | 38.09296 | 31.56356 | 41117 ft | 520 kts | 148° |
| 2026-05-06 16:03 | 38.03044 | 31.60923 | 41103 ft | 518 kts | 154° |
| 2026-05-06 16:04 | 37.96675 | 31.65113 | 41102 ft | 519 kts | 154° |
| 2026-05-06 16:04 | 37.90303 | 31.69493 | 41202 ft | 517 kts | 153° |
| 2026-05-06 16:05 | 37.84059 | 31.73915 | 41131 ft | 514 kts | 152° |
| 2026-05-06 16:05 | 37.80933 | 31.76144 | 40969 ft | 513 kts | 153° |
| 2026-05-06 16:05 | 37.77845 | 31.78347 | 41091 ft | 516 kts | 153° |
| 2026-05-06 16:06 | 37.71547 | 31.82839 | 41098 ft | 519 kts | 153° |
| 2026-05-06 16:06 | 37.65296 | 31.87295 | 41097 ft | 518 kts | 153° |
| 2026-05-06 16:07 | 37.59011 | 31.91767 | 41093 ft | 518 kts | 153° |
| 2026-05-06 16:07 | 37.52705 | 31.96245 | 41090 ft | 518 kts | 153° |
| 2026-05-06 16:08 | 37.46449 | 32.00679 | 41087 ft | 517 kts | 153° |
| 2026-05-06 16:08 | 37.40155 | 32.05131 | 41096 ft | 517 kts | 153° |
| 2026-05-06 16:09 | 37.33894 | 32.09551 | 41095 ft | 517 kts | 153° |
| 2026-05-06 16:09 | 37.27605 | 32.13984 | 41097 ft | 517 kts | 153° |
| 2026-05-06 16:10 | 37.21356 | 32.18379 | 41097 ft | 517 kts | 153° |
| 2026-05-06 16:10 | 37.15065 | 32.22795 | 41095 ft | 516 kts | 153° |
| 2026-05-06 16:11 | 37.08787 | 32.27193 | 41093 ft | 516 kts | 153° |
| 2026-05-06 16:11 | 37.02544 | 32.31559 | 40866 ft | 515 kts | 154° |
| 2026-05-06 16:12 | 36.99436 | 32.33731 | 40634 ft | 507 kts | 154° |
| 2026-05-06 16:12 | 36.96374 | 32.35867 | 39814 ft | 511 kts | 153° |
| 2026-05-06 16:12 | 36.93238 | 32.38050 | 38951 ft | 519 kts | 153° |
| 2026-05-06 16:12 | 36.90071 | 32.40254 | 38046 ft | 522 kts | 153° |
| 2026-05-06 16:13 | 36.86893 | 32.42466 | 37309 ft | 521 kts | 153° |
| 2026-05-06 16:13 | 36.83719 | 32.44673 | 36620 ft | 520 kts | 153° |
| 2026-05-06 16:13 | 36.81629 | 32.46126 | 36145 ft | 520 kts | 153° |
| 2026-05-06 16:13 | 36.77432 | 32.49038 | 35178 ft | 520 kts | 154° |
| 2026-05-06 16:14 | 36.74262 | 32.51236 | 34400 ft | 521 kts | 154° |
| 2026-05-06 16:14 | 36.72157 | 32.52692 | 33802 ft | 523 kts | 154° |
| 2026-05-06 16:14 | 36.68965 | 32.54900 | 32870 ft | 524 kts | 153° |
| 2026-05-06 16:14 | 36.65767 | 32.57109 | 31964 ft | 524 kts | 153° |
| 2026-05-06 16:15 | 36.62572 | 32.59315 | 31046 ft | 525 kts | 153° |
| 2026-05-06 16:15 | 36.59400 | 32.61504 | 30089 ft | 527 kts | 153° |
| 2026-05-06 16:15 | 36.56184 | 32.63720 | 29237 ft | 525 kts | 153° |
| 2026-05-06 16:15 | 36.52996 | 32.65919 | 28574 ft | 517 kts | 153° |
| 2026-05-06 16:16 | 36.49863 | 32.68077 | 27909 ft | 511 kts | 153° |
| 2026-05-06 16:16 | 36.46771 | 32.70203 | 27245 ft | 505 kts | 153° |
| 2026-05-06 16:16 | 36.43707 | 32.72306 | 26584 ft | 500 kts | 153° |
| 2026-05-06 16:16 | 36.40705 | 32.74365 | 25948 ft | 494 kts | 153° |
| 2026-05-06 16:17 | 36.37713 | 32.76416 | 25299 ft | 489 kts | 153° |
| 2026-05-06 16:17 | 36.34748 | 32.78445 | 24661 ft | 483 kts | 153° |
| 2026-05-06 16:17 | 36.31817 | 32.80450 | 24025 ft | 478 kts | 153° |
| 2026-05-06 16:17 | 36.28919 | 32.82431 | 23346 ft | 474 kts | 153° |
| 2026-05-06 16:18 | 36.26050 | 32.84392 | 22676 ft | 467 kts | 153° |
| 2026-05-06 16:18 | 36.23220 | 32.86324 | 22049 ft | 461 kts | 153° |
| 2026-05-06 16:18 | 36.20430 | 32.88227 | 21431 ft | 454 kts | 153° |
| 2026-05-06 16:18 | 36.17712 | 32.90078 | 20808 ft | 449 kts | 153° |
| 2026-05-06 16:19 | 36.14993 | 32.91930 | 20173 ft | 443 kts | 153° |
| 2026-05-06 16:19 | 36.12308 | 32.93756 | 19565 ft | 438 kts | 153° |
| 2026-05-06 16:19 | 36.09646 | 32.95565 | 18937 ft | 434 kts | 153° |
| 2026-05-06 16:19 | 36.07014 | 32.97353 | 18313 ft | 430 kts | 153° |
| 2026-05-06 16:20 | 36.04401 | 32.99126 | 17616 ft | 425 kts | 153° |
| 2026-05-06 16:20 | 36.01818 | 33.00878 | 16991 ft | 420 kts | 152° |
| 2026-05-06 16:20 | 35.99276 | 33.02601 | 16372 ft | 414 kts | 152° |
| 2026-05-06 16:20 | 35.96764 | 33.04302 | 15764 ft | 409 kts | 152° |
| 2026-05-06 16:21 | 35.94296 | 33.05972 | 15144 ft | 405 kts | 152° |
| 2026-05-06 16:21 | 35.91838 | 33.07634 | 14524 ft | 401 kts | 152° |
| 2026-05-06 16:21 | 35.89402 | 33.09280 | 13915 ft | 397 kts | 152° |
| 2026-05-06 16:21 | 35.86993 | 33.10906 | 13264 ft | 392 kts | 152° |
| 2026-05-06 16:22 | 35.84618 | 33.12508 | 12656 ft | 386 kts | 152° |
| 2026-05-06 16:22 | 35.82420 | 33.13990 | 12093 ft | 381 kts | 152° |
| 2026-05-06 16:22 | 35.80111 | 33.15546 | 11632 ft | 373 kts | 151° |
| 2026-05-06 16:22 | 35.77889 | 33.17043 | 11492 ft | 356 kts | 151° |
| 2026-05-06 16:23 | 35.75764 | 33.18474 | 11363 ft | 340 kts | 151° |
| 2026-05-06 16:23 | 35.73761 | 33.19822 | 11238 ft | 325 kts | 151° |
| 2026-05-06 16:23 | 35.71816 | 33.21129 | 11107 ft | 312 kts | 151° |
| 2026-05-06 16:23 | 35.69943 | 33.22387 | 10977 ft | 300 kts | 151° |
| 2026-05-06 16:24 | 35.68146 | 33.23595 | 10847 ft | 289 kts | 151° |
| 2026-05-06 16:24 | 35.66392 | 33.24773 | 10654 ft | 285 kts | 151° |
| 2026-05-06 16:24 | 35.64654 | 33.25939 | 10349 ft | 283 kts | 151° |
| 2026-05-06 16:24 | 35.62927 | 33.27097 | 10051 ft | 282 kts | 150° |
| 2026-05-06 16:25 | 35.61170 | 33.28276 | 9818 ft | 295 kts | 150° |
| 2026-05-06 16:25 | 35.59353 | 33.29495 | 9693 ft | 298 kts | 150° |
| 2026-05-06 16:25 | 35.57537 | 33.30712 | 9201 ft | 298 kts | 151° |
| 2026-05-06 16:25 | 35.55719 | 33.31929 | 8779 ft | 297 kts | 151° |
| 2026-05-06 16:26 | 35.53915 | 33.33136 | 8449 ft | 294 kts | 151° |
| 2026-05-06 16:26 | 35.52118 | 33.34337 | 8125 ft | 292 kts | 151° |
| 2026-05-06 16:26 | 35.50338 | 33.35527 | 7817 ft | 291 kts | 152° |
| 2026-05-06 16:26 | 35.48587 | 33.36697 | 7486 ft | 289 kts | 152° |
| 2026-05-06 16:27 | 35.46822 | 33.37875 | 7122 ft | 287 kts | 152° |
| 2026-05-06 16:27 | 35.45072 | 33.39044 | 6802 ft | 285 kts | 152° |
| 2026-05-06 16:27 | 35.43334 | 33.40203 | 6497 ft | 284 kts | 152° |
| 2026-05-06 16:27 | 35.41608 | 33.41353 | 6169 ft | 282 kts | 152° |
| 2026-05-06 16:28 | 35.39888 | 33.42498 | 5862 ft | 280 kts | 152° |
| 2026-05-06 16:28 | 35.38181 | 33.43635 | 5552 ft | 278 kts | 152° |
| 2026-05-06 16:28 | 35.36487 | 33.44762 | 5247 ft | 276 kts | 153° |
| 2026-05-06 16:28 | 35.34800 | 33.45884 | 4947 ft | 274 kts | 153° |
| 2026-05-06 16:29 | 35.33131 | 33.46993 | 4644 ft | 272 kts | 153° |
| 2026-05-06 16:29 | 35.31495 | 33.48079 | 4336 ft | 270 kts | 153° |
| 2026-05-06 16:29 | 35.29842 | 33.49175 | 4039 ft | 269 kts | 153° |
| 2026-05-06 16:29 | 35.28200 | 33.50264 | 3740 ft | 268 kts | 153° |
| 2026-05-06 16:30 | 35.26561 | 33.51353 | 3442 ft | 266 kts | 152° |
| 2026-05-06 16:30 | 35.25489 | 33.52080 | 3234 ft | 266 kts | 152° |
| 2026-05-06 16:30 | 35.23356 | 33.53612 | 2827 ft | 267 kts | 144° |
| 2026-05-06 16:30 | 35.22026 | 33.55190 | 2537 ft | 267 kts | 128° |
| 2026-05-06 16:31 | 35.20949 | 33.57029 | 2210 ft | 265 kts | 126° |
| 2026-05-06 16:31 | 35.19657 | 33.58630 | 2021 ft | 263 kts | 146° |
| 2026-05-06 16:31 | 35.18012 | 33.59551 | 2004 ft | 255 kts | 163° |
| 2026-05-06 16:31 | 35.16423 | 33.60259 | 1957 ft | 238 kts | 161° |
| 2026-05-06 16:32 | 35.14831 | 33.60594 | 1678 ft | 227 kts | 182° |
| 2026-05-06 16:32 | 35.13417 | 33.60024 | 1562 ft | 206 kts | 216° |
| 2026-05-06 16:32 | 35.12637 | 33.58723 | 1530 ft | 179 kts | 255° |
| 2026-05-06 16:32 | 35.12840 | 33.57402 | 1494 ft | 149 kts | 308° |
| 2026-05-06 16:33 | 35.13467 | 33.56504 | 1336 ft | 134 kts | 302° |
| 2026-05-06 16:33 | 35.13823 | 33.55468 | 1127 ft | 133 kts | 286° |
| 2026-05-06 16:33 | 35.14111 | 33.54382 | 931 ft | 137 kts | 288° |
| 2026-05-06 16:34 | 35.14848 | 33.52199 | 505 ft | 141 kts | 291° |
| 2026-05-06 16:34 | 35.15202 | 33.51111 | 401 ft | 129 kts | 290° |
| 2026-05-06 16:34 | 35.15350 | 33.50482 | 395 ft | 33 kts | 268° |
| 2026-05-06 16:34 | 35.15311 | 33.50300 | 392 ft | 10 kts | 246° |
| 2026-05-06 16:35 | 35.15263 | 33.50192 | 394 ft | 16 kts | 224° |
| 2026-05-06 16:35 | 35.15166 | 33.50132 | 396 ft | 15 kts | 204° |
| 2026-05-06 16:35 | 35.15094 | 33.50151 | 399 ft | 10 kts | 118° |
| 2026-05-06 16:35 | 35.15066 | 33.50240 | 395 ft | 13 kts | 112° |
| 2026-05-06 16:36 | 35.15040 | 33.50316 | 396 ft | 1 kts | 112° |
| 2026-05-06 16:36 | 35.15032 | 33.50336 | 396 ft | 2 kts | 119° |
| 2026-05-06 16:36 | 35.15018 | 33.50349 | 397 ft | 3 kts | 149° |
| 2026-05-06 16:36 | 35.15002 | 33.50349 | 395 ft | 2 kts | 186° |
| 2026-05-06 16:37 | 35.14984 | 33.50341 | 397 ft | 4 kts | 203° |
| 2026-05-06 16:37 | 35.14981 | 33.50339 | 397 ft | 0 kts | 203° |